sensor_id;sensor_type;location;lat;lon;timestamp;pressure;altitude;pressure_sealevel;temperature
19666;BMP180;9980;51.020;7.772;2022-12-19T00:01:23;98117.00;;;3.10
19666;BMP180;9980;51.020;7.772;2022-12-19T00:03:58;98127.00;;;3.10
19666;BMP180;9980;51.020;7.772;2022-12-19T00:06:25;98117.00;;;3.10
19666;BMP180;9980;51.020;7.772;2022-12-19T00:08:53;98110.00;;;3.10
19666;BMP180;9980;51.020;7.772;2022-12-19T00:11:22;98106.00;;;3.10
19666;BMP180;9980;51.020;7.772;2022-12-19T00:13:49;98104.00;;;3.20
19666;BMP180;9980;51.020;7.772;2022-12-19T00:16:19;98106.00;;;3.20
19666;BMP180;9980;51.020;7.772;2022-12-19T00:18:46;98104.00;;;3.20
19666;BMP180;9980;51.020;7.772;2022-12-19T00:21:18;98110.00;;;3.20
19666;BMP180;9980;51.020;7.772;2022-12-19T00:23:45;98106.00;;;3.20
19666;BMP180;9980;51.020;7.772;2022-12-19T00:26:26;98091.00;;;3.20
19666;BMP180;9980;51.020;7.772;2022-12-19T00:28:56;98084.00;;;3.20
19666;BMP180;9980;51.020;7.772;2022-12-19T00:31:25;98104.00;;;3.30
19666;BMP180;9980;51.020;7.772;2022-12-19T00:33:52;98092.00;;;3.30
19666;BMP180;9980;51.020;7.772;2022-12-19T00:36:25;98093.00;;;3.30
19666;BMP180;9980;51.020;7.772;2022-12-19T00:38:54;98086.00;;;3.30
19666;BMP180;9980;51.020;7.772;2022-12-19T00:41:28;98082.00;;;3.30
19666;BMP180;9980;51.020;7.772;2022-12-19T00:46:25;98088.00;;;3.40
19666;BMP180;9980;51.020;7.772;2022-12-19T00:48:51;98076.00;;;3.40
19666;BMP180;9980;51.020;7.772;2022-12-19T00:51:27;98080.00;;;3.40
19666;BMP180;9980;51.020;7.772;2022-12-19T00:53:56;98071.00;;;3.40
19666;BMP180;9980;51.020;7.772;2022-12-19T00:56:29;98075.00;;;3.40
19666;BMP180;9980;51.020;7.772;2022-12-19T00:58:56;98067.00;;;3.40
19666;BMP180;9980;51.020;7.772;2022-12-19T01:01:35;98046.00;;;3.40
19666;BMP180;9980;51.020;7.772;2022-12-19T01:04:08;98057.00;;;3.50
19666;BMP180;9980;51.020;7.772;2022-12-19T01:06:56;98067.00;;;3.50
19666;BMP180;9980;51.020;7.772;2022-12-19T01:09:33;98056.00;;;3.50
19666;BMP180;9980;51.020;7.772;2022-12-19T01:12:00;98071.00;;;3.50
19666;BMP180;9980;51.020;7.772;2022-12-19T01:14:46;98053.00;;;3.50
19666;BMP180;9980;51.020;7.772;2022-12-19T01:17:13;98062.00;;;3.60
19666;BMP180;9980;51.020;7.772;2022-12-19T01:19:39;98053.00;;;3.60
19666;BMP180;9980;51.020;7.772;2022-12-19T01:22:11;98047.00;;;3.60
19666;BMP180;9980;51.020;7.772;2022-12-19T01:24:38;98033.00;;;3.60
19666;BMP180;9980;51.020;7.772;2022-12-19T01:27:05;98040.00;;;3.60
19666;BMP180;9980;51.020;7.772;2022-12-19T01:29:31;98042.00;;;3.60
19666;BMP180;9980;51.020;7.772;2022-12-19T01:31:59;98039.00;;;3.60
19666;BMP180;9980;51.020;7.772;2022-12-19T01:34:26;98039.00;;;3.60
19666;BMP180;9980;51.020;7.772;2022-12-19T01:36:52;98033.00;;;3.60
19666;BMP180;9980;51.020;7.772;2022-12-19T01:39:18;98036.00;;;3.60
19666;BMP180;9980;51.020;7.772;2022-12-19T01:41:46;98036.00;;;3.70
19666;BMP180;9980;51.020;7.772;2022-12-19T01:44:12;98036.00;;;3.70
19666;BMP180;9980;51.020;7.772;2022-12-19T01:46:48;98045.00;;;3.70
19666;BMP180;9980;51.020;7.772;2022-12-19T01:49:30;98056.00;;;3.70
19666;BMP180;9980;51.020;7.772;2022-12-19T01:52:02;98056.00;;;3.70
19666;BMP180;9980;51.020;7.772;2022-12-19T01:54:37;98041.00;;;3.70
19666;BMP180;9980;51.020;7.772;2022-12-19T01:57:10;98027.00;;;3.70
19666;BMP180;9980;51.020;7.772;2022-12-19T01:59:43;98060.00;;;3.70
19666;BMP180;9980;51.020;7.772;2022-12-19T02:02:18;98064.00;;;3.70
19666;BMP180;9980;51.020;7.772;2022-12-19T02:04:47;98045.00;;;3.80
19666;BMP180;9980;51.020;7.772;2022-12-19T02:07:15;98037.00;;;3.80
19666;BMP180;9980;51.020;7.772;2022-12-19T02:09:50;98048.00;;;3.80
19666;BMP180;9980;51.020;7.772;2022-12-19T02:12:32;98040.00;;;3.80
19666;BMP180;9980;51.020;7.772;2022-12-19T02:15:01;98038.00;;;3.80
19666;BMP180;9980;51.020;7.772;2022-12-19T02:17:50;98028.00;;;3.80
19666;BMP180;9980;51.020;7.772;2022-12-19T02:24:35;98010.00;;;3.80
19666;BMP180;9980;51.020;7.772;2022-12-19T02:33:15;97972.00;;;3.80
19666;BMP180;9980;51.020;7.772;2022-12-19T02:35:50;97994.00;;;3.80
19666;BMP180;9980;51.020;7.772;2022-12-19T02:38:41;97980.00;;;3.80
19666;BMP180;9980;51.020;7.772;2022-12-19T02:41:24;97986.00;;;3.90
19666;BMP180;9980;51.020;7.772;2022-12-19T02:43:53;97991.00;;;3.90
19666;BMP180;9980;51.020;7.772;2022-12-19T02:46:27;97978.00;;;3.90
19666;BMP180;9980;51.020;7.772;2022-12-19T02:48:56;97967.00;;;3.90
19666;BMP180;9980;51.020;7.772;2022-12-19T02:51:23;97958.00;;;3.90
19666;BMP180;9980;51.020;7.772;2022-12-19T02:53:49;97955.00;;;4.00
19666;BMP180;9980;51.020;7.772;2022-12-19T03:05:34;97942.00;;;4.00
19666;BMP180;9980;51.020;7.772;2022-12-19T03:10:58;97933.00;;;4.00
19666;BMP180;9980;51.020;7.772;2022-12-19T03:13:42;97937.00;;;4.00
19666;BMP180;9980;51.020;7.772;2022-12-19T03:16:11;97926.00;;;4.10
19666;BMP180;9980;51.020;7.772;2022-12-19T03:18:38;97947.00;;;4.10
19666;BMP180;9980;51.020;7.772;2022-12-19T03:21:24;97945.00;;;4.10
19666;BMP180;9980;51.020;7.772;2022-12-19T03:23:54;97957.00;;;4.10
19666;BMP180;9980;51.020;7.772;2022-12-19T03:26:25;97950.00;;;4.10
19666;BMP180;9980;51.020;7.772;2022-12-19T03:29:13;97949.00;;;4.20
19666;BMP180;9980;51.020;7.772;2022-12-19T03:31:42;97941.00;;;4.10
19666;BMP180;9980;51.020;7.772;2022-12-19T03:34:22;97935.00;;;4.20
19666;BMP180;9980;51.020;7.772;2022-12-19T03:37:04;97925.00;;;4.20
19666;BMP180;9980;51.020;7.772;2022-12-19T03:39:31;97915.00;;;4.10
19666;BMP180;9980;51.020;7.772;2022-12-19T03:42:01;97915.00;;;4.20
19666;BMP180;9980;51.020;7.772;2022-12-19T03:44:49;97926.00;;;4.20
19666;BMP180;9980;51.020;7.772;2022-12-19T03:49:57;97913.00;;;4.20
19666;BMP180;9980;51.020;7.772;2022-12-19T03:52:52;97894.00;;;4.20
19666;BMP180;9980;51.020;7.772;2022-12-19T03:55:45;97901.00;;;4.20
19666;BMP180;9980;51.020;7.772;2022-12-19T03:58:28;97905.00;;;4.20
19666;BMP180;9980;51.020;7.772;2022-12-19T04:00:58;97901.00;;;4.20
19666;BMP180;9980;51.020;7.772;2022-12-19T04:03:27;97909.00;;;4.30
19666;BMP180;9980;51.020;7.772;2022-12-19T04:05:56;97909.00;;;4.30
19666;BMP180;9980;51.020;7.772;2022-12-19T04:08:23;97908.00;;;4.30
19666;BMP180;9980;51.020;7.772;2022-12-19T04:11:03;97897.00;;;4.30
19666;BMP180;9980;51.020;7.772;2022-12-19T04:13:42;97897.00;;;4.30
19666;BMP180;9980;51.020;7.772;2022-12-19T04:16:42;97898.00;;;4.30
19666;BMP180;9980;51.020;7.772;2022-12-19T04:19:18;97893.00;;;4.40
19666;BMP180;9980;51.020;7.772;2022-12-19T04:22:01;97876.00;;;4.40
19666;BMP180;9980;51.020;7.772;2022-12-19T04:24:33;97884.00;;;4.40
19666;BMP180;9980;51.020;7.772;2022-12-19T04:27:04;97880.00;;;4.40
19666;BMP180;9980;51.020;7.772;2022-12-19T04:29:34;97872.00;;;4.50
19666;BMP180;9980;51.020;7.772;2022-12-19T04:32:04;97885.00;;;4.50
19666;BMP180;9980;51.020;7.772;2022-12-19T04:34:31;97863.00;;;4.50
19666;BMP180;9980;51.020;7.772;2022-12-19T04:36:58;97874.00;;;4.60
19666;BMP180;9980;51.020;7.772;2022-12-19T04:39:24;97872.00;;;4.60
19666;BMP180;9980;51.020;7.772;2022-12-19T04:41:51;97861.00;;;4.60
19666;BMP180;9980;51.020;7.772;2022-12-19T04:44:17;97863.00;;;4.70
19666;BMP180;9980;51.020;7.772;2022-12-19T04:46:43;97857.00;;;4.70
19666;BMP180;9980;51.020;7.772;2022-12-19T04:49:09;97860.00;;;4.70
19666;BMP180;9980;51.020;7.772;2022-12-19T04:51:36;97847.00;;;4.70
19666;BMP180;9980;51.020;7.772;2022-12-19T04:54:02;97854.00;;;4.80
19666;BMP180;9980;51.020;7.772;2022-12-19T04:56:28;97846.00;;;4.80
19666;BMP180;9980;51.020;7.772;2022-12-19T04:58:59;97868.00;;;4.90
19666;BMP180;9980;51.020;7.772;2022-12-19T05:01:25;97875.00;;;4.90
19666;BMP180;9980;51.020;7.772;2022-12-19T05:03:52;97869.00;;;4.90
19666;BMP180;9980;51.020;7.772;2022-12-19T05:06:23;97868.00;;;4.90
19666;BMP180;9980;51.020;7.772;2022-12-19T05:08:49;97853.00;;;5.00
19666;BMP180;9980;51.020;7.772;2022-12-19T05:11:16;97836.00;;;5.00
19666;BMP180;9980;51.020;7.772;2022-12-19T05:13:46;97867.00;;;5.10
19666;BMP180;9980;51.020;7.772;2022-12-19T05:16:14;97837.00;;;5.10
19666;BMP180;9980;51.020;7.772;2022-12-19T05:18:42;97850.00;;;5.10
19666;BMP180;9980;51.020;7.772;2022-12-19T05:21:08;97850.00;;;5.10
19666;BMP180;9980;51.020;7.772;2022-12-19T05:23:35;97843.00;;;5.10
19666;BMP180;9980;51.020;7.772;2022-12-19T05:26:04;97836.00;;;5.20
19666;BMP180;9980;51.020;7.772;2022-12-19T05:28:31;97848.00;;;5.20
19666;BMP180;9980;51.020;7.772;2022-12-19T05:31:13;97841.00;;;5.20
19666;BMP180;9980;51.020;7.772;2022-12-19T05:33:41;97872.00;;;5.30
19666;BMP180;9980;51.020;7.772;2022-12-19T05:36:10;97855.00;;;5.30
19666;BMP180;9980;51.020;7.772;2022-12-19T05:38:36;97871.00;;;5.30
19666;BMP180;9980;51.020;7.772;2022-12-19T05:41:14;97860.00;;;5.40
19666;BMP180;9980;51.020;7.772;2022-12-19T05:43:43;97858.00;;;5.40
19666;BMP180;9980;51.020;7.772;2022-12-19T05:46:09;97855.00;;;5.40
19666;BMP180;9980;51.020;7.772;2022-12-19T05:48:36;97859.00;;;5.50
19666;BMP180;9980;51.020;7.772;2022-12-19T05:51:03;97862.00;;;5.50
19666;BMP180;9980;51.020;7.772;2022-12-19T05:53:29;97867.00;;;5.50
19666;BMP180;9980;51.020;7.772;2022-12-19T05:56:11;97894.00;;;5.60
19666;BMP180;9980;51.020;7.772;2022-12-19T05:58:39;97866.00;;;5.60
19666;BMP180;9980;51.020;7.772;2022-12-19T06:01:13;97863.00;;;5.60
19666;BMP180;9980;51.020;7.772;2022-12-19T06:03:40;97869.00;;;5.60
19666;BMP180;9980;51.020;7.772;2022-12-19T06:06:11;97865.00;;;5.70
19666;BMP180;9980;51.020;7.772;2022-12-19T06:08:38;97873.00;;;5.70
19666;BMP180;9980;51.020;7.772;2022-12-19T06:11:06;97862.00;;;5.70
19666;BMP180;9980;51.020;7.772;2022-12-19T06:13:34;97873.00;;;5.80
19666;BMP180;9980;51.020;7.772;2022-12-19T06:16:13;97879.00;;;5.80
19666;BMP180;9980;51.020;7.772;2022-12-19T06:18:42;97869.00;;;5.80
19666;BMP180;9980;51.020;7.772;2022-12-19T06:21:20;97860.00;;;5.80
19666;BMP180;9980;51.020;7.772;2022-12-19T06:23:47;97852.00;;;5.80
19666;BMP180;9980;51.020;7.772;2022-12-19T06:26:17;97873.00;;;5.80
19666;BMP180;9980;51.020;7.772;2022-12-19T06:28:51;97874.00;;;5.90
19666;BMP180;9980;51.020;7.772;2022-12-19T06:31:21;97872.00;;;5.90
19666;BMP180;9980;51.020;7.772;2022-12-19T06:33:47;97863.00;;;5.90
19666;BMP180;9980;51.020;7.772;2022-12-19T06:38:45;97872.00;;;6.00
19666;BMP180;9980;51.020;7.772;2022-12-19T06:41:12;97892.00;;;6.00
19666;BMP180;9980;51.020;7.772;2022-12-19T06:44:02;97875.00;;;6.00
19666;BMP180;9980;51.020;7.772;2022-12-19T06:46:29;97868.00;;;6.00
19666;BMP180;9980;51.020;7.772;2022-12-19T06:48:56;97860.00;;;6.10
19666;BMP180;9980;51.020;7.772;2022-12-19T06:51:23;97852.00;;;6.10
19666;BMP180;9980;51.020;7.772;2022-12-19T06:53:49;97863.00;;;6.10
19666;BMP180;9980;51.020;7.772;2022-12-19T06:56:18;97866.00;;;6.10
19666;BMP180;9980;51.020;7.772;2022-12-19T06:58:46;97858.00;;;6.20
19666;BMP180;9980;51.020;7.772;2022-12-19T07:01:18;97875.00;;;6.20
19666;BMP180;9980;51.020;7.772;2022-12-19T07:03:46;97880.00;;;6.20
19666;BMP180;9980;51.020;7.772;2022-12-19T07:06:14;97864.00;;;6.20
19666;BMP180;9980;51.020;7.772;2022-12-19T07:08:40;97867.00;;;6.20
19666;BMP180;9980;51.020;7.772;2022-12-19T07:11:06;97883.00;;;6.30
19666;BMP180;9980;51.020;7.772;2022-12-19T07:13:33;97872.00;;;6.30
19666;BMP180;9980;51.020;7.772;2022-12-19T07:16:03;97877.00;;;6.30
19666;BMP180;9980;51.020;7.772;2022-12-19T07:18:35;97878.00;;;6.30
19666;BMP180;9980;51.020;7.772;2022-12-19T07:21:03;97887.00;;;6.40
19666;BMP180;9980;51.020;7.772;2022-12-19T07:23:30;97893.00;;;6.40
19666;BMP180;9980;51.020;7.772;2022-12-19T07:25:56;97896.00;;;6.40
19666;BMP180;9980;51.020;7.772;2022-12-19T07:28:23;97894.00;;;6.40
19666;BMP180;9980;51.020;7.772;2022-12-19T07:30:49;97909.00;;;6.50
19666;BMP180;9980;51.020;7.772;2022-12-19T07:33:16;97893.00;;;6.50
19666;BMP180;9980;51.020;7.772;2022-12-19T07:35:47;97899.00;;;6.50
19666;BMP180;9980;51.020;7.772;2022-12-19T07:38:14;97909.00;;;6.50
19666;BMP180;9980;51.020;7.772;2022-12-19T07:40:40;97910.00;;;6.50
19666;BMP180;9980;51.020;7.772;2022-12-19T07:43:06;97898.00;;;6.60
19666;BMP180;9980;51.020;7.772;2022-12-19T07:45:35;97909.00;;;6.60
19666;BMP180;9980;51.020;7.772;2022-12-19T07:48:04;97905.00;;;6.60
19666;BMP180;9980;51.020;7.772;2022-12-19T07:50:31;97892.00;;;6.60
19666;BMP180;9980;51.020;7.772;2022-12-19T07:52:58;97913.00;;;6.60
19666;BMP180;9980;51.020;7.772;2022-12-19T07:55:25;97897.00;;;6.60
19666;BMP180;9980;51.020;7.772;2022-12-19T07:57:52;97891.00;;;6.70
19666;BMP180;9980;51.020;7.772;2022-12-19T08:00:18;97897.00;;;6.70
19666;BMP180;9980;51.020;7.772;2022-12-19T08:02:45;97901.00;;;6.70
19666;BMP180;9980;51.020;7.772;2022-12-19T08:05:12;97921.00;;;6.70
19666;BMP180;9980;51.020;7.772;2022-12-19T08:07:39;97902.00;;;6.70
19666;BMP180;9980;51.020;7.772;2022-12-19T08:10:06;97908.00;;;6.80
19666;BMP180;9980;51.020;7.772;2022-12-19T08:12:33;97923.00;;;6.80
19666;BMP180;9980;51.020;7.772;2022-12-19T08:14:59;97913.00;;;6.80
19666;BMP180;9980;51.020;7.772;2022-12-19T08:17:25;97907.00;;;6.90
19666;BMP180;9980;51.020;7.772;2022-12-19T08:19:52;97910.00;;;6.90
19666;BMP180;9980;51.020;7.772;2022-12-19T08:22:18;97925.00;;;6.90
19666;BMP180;9980;51.020;7.772;2022-12-19T08:24:44;97931.00;;;7.00
19666;BMP180;9980;51.020;7.772;2022-12-19T08:27:11;97924.00;;;7.00
19666;BMP180;9980;51.020;7.772;2022-12-19T08:29:37;97915.00;;;7.00
19666;BMP180;9980;51.020;7.772;2022-12-19T08:32:03;97897.00;;;7.00
19666;BMP180;9980;51.020;7.772;2022-12-19T08:34:30;97910.00;;;7.00
19666;BMP180;9980;51.020;7.772;2022-12-19T08:36:56;97907.00;;;7.10
19666;BMP180;9980;51.020;7.772;2022-12-19T08:39:22;97892.00;;;7.10
19666;BMP180;9980;51.020;7.772;2022-12-19T08:41:49;97885.00;;;7.10
19666;BMP180;9980;51.020;7.772;2022-12-19T08:44:15;97893.00;;;7.20
19666;BMP180;9980;51.020;7.772;2022-12-19T08:46:41;97893.00;;;7.20
19666;BMP180;9980;51.020;7.772;2022-12-19T08:49:16;97875.00;;;7.20
19666;BMP180;9980;51.020;7.772;2022-12-19T08:51:42;97887.00;;;7.20
19666;BMP180;9980;51.020;7.772;2022-12-19T08:54:08;97888.00;;;7.30
19666;BMP180;9980;51.020;7.772;2022-12-19T08:56:38;97883.00;;;7.30
19666;BMP180;9980;51.020;7.772;2022-12-19T08:59:11;97889.00;;;7.30
19666;BMP180;9980;51.020;7.772;2022-12-19T09:01:38;97889.00;;;7.30
19666;BMP180;9980;51.020;7.772;2022-12-19T09:04:05;97881.00;;;7.40
19666;BMP180;9980;51.020;7.772;2022-12-19T09:06:51;97888.00;;;7.40
19666;BMP180;9980;51.020;7.772;2022-12-19T09:09:17;97883.00;;;7.40
19666;BMP180;9980;51.020;7.772;2022-12-19T09:11:44;97861.00;;;7.50
19666;BMP180;9980;51.020;7.772;2022-12-19T09:14:14;97873.00;;;7.50
19666;BMP180;9980;51.020;7.772;2022-12-19T09:16:46;97864.00;;;7.50
19666;BMP180;9980;51.020;7.772;2022-12-19T09:19:13;97889.00;;;7.50
19666;BMP180;9980;51.020;7.772;2022-12-19T09:21:41;97882.00;;;7.50
19666;BMP180;9980;51.020;7.772;2022-12-19T09:24:08;97889.00;;;7.60
19666;BMP180;9980;51.020;7.772;2022-12-19T09:26:35;97877.00;;;7.60
19666;BMP180;9980;51.020;7.772;2022-12-19T09:29:04;97876.00;;;7.60
19666;BMP180;9980;51.020;7.772;2022-12-19T09:31:48;97889.00;;;7.70
19666;BMP180;9980;51.020;7.772;2022-12-19T09:34:25;97891.00;;;7.70
19666;BMP180;9980;51.020;7.772;2022-12-19T09:37:09;97883.00;;;7.70
19666;BMP180;9980;51.020;7.772;2022-12-19T09:39:42;97880.00;;;7.80
19666;BMP180;9980;51.020;7.772;2022-12-19T09:47:59;97892.00;;;7.80
19666;BMP180;9980;51.020;7.772;2022-12-19T09:50:44;97881.00;;;7.90
19666;BMP180;9980;51.020;7.772;2022-12-19T09:53:32;97876.00;;;7.90
19666;BMP180;9980;51.020;7.772;2022-12-19T09:56:03;97892.00;;;7.90
19666;BMP180;9980;51.020;7.772;2022-12-19T09:58:39;97897.00;;;8.00
19666;BMP180;9980;51.020;7.772;2022-12-19T10:01:31;97884.00;;;8.00
19666;BMP180;9980;51.020;7.772;2022-12-19T10:04:07;97880.00;;;8.00
19666;BMP180;9980;51.020;7.772;2022-12-19T10:06:35;97869.00;;;8.00
19666;BMP180;9980;51.020;7.772;2022-12-19T10:09:28;97877.00;;;8.00
19666;BMP180;9980;51.020;7.772;2022-12-19T10:15:33;97867.00;;;8.10
19666;BMP180;9980;51.020;7.772;2022-12-19T10:24:49;97871.00;;;8.20
19666;BMP180;9980;51.020;7.772;2022-12-19T10:27:55;97850.00;;;8.20
19666;BMP180;9980;51.020;7.772;2022-12-19T10:30:28;97853.00;;;8.20
19666;BMP180;9980;51.020;7.772;2022-12-19T10:33:15;97851.00;;;8.20
19666;BMP180;9980;51.020;7.772;2022-12-19T10:35:54;97845.00;;;8.30
19666;BMP180;9980;51.020;7.772;2022-12-19T10:41:27;97843.00;;;8.20
19666;BMP180;9980;51.020;7.772;2022-12-19T10:44:03;97857.00;;;8.20
19666;BMP180;9980;51.020;7.772;2022-12-19T10:46:48;97865.00;;;8.30
19666;BMP180;9980;51.020;7.772;2022-12-19T10:49:16;97869.00;;;8.30
19666;BMP180;9980;51.020;7.772;2022-12-19T10:51:58;97848.00;;;8.30
19666;BMP180;9980;51.020;7.772;2022-12-19T11:00:14;97861.00;;;8.20
19666;BMP180;9980;51.020;7.772;2022-12-19T11:02:49;97850.00;;;8.20
19666;BMP180;9980;51.020;7.772;2022-12-19T11:05:24;97846.00;;;8.20
19666;BMP180;9980;51.020;7.772;2022-12-19T11:13:50;97847.00;;;8.20
19666;BMP180;9980;51.020;7.772;2022-12-19T11:16:37;97827.00;;;8.20
19666;BMP180;9980;51.020;7.772;2022-12-19T11:19:33;97824.00;;;8.20
19666;BMP180;9980;51.020;7.772;2022-12-19T11:22:26;97832.00;;;8.20
19666;BMP180;9980;51.020;7.772;2022-12-19T11:25:18;97825.00;;;8.20
19666;BMP180;9980;51.020;7.772;2022-12-19T11:28:27;97829.00;;;8.20
19666;BMP180;9980;51.020;7.772;2022-12-19T11:31:27;97828.00;;;8.20
19666;BMP180;9980;51.020;7.772;2022-12-19T11:34:18;97832.00;;;8.30
19666;BMP180;9980;51.020;7.772;2022-12-19T11:39:42;97817.00;;;8.30
19666;BMP180;9980;51.020;7.772;2022-12-19T11:42:36;97839.00;;;8.30
19666;BMP180;9980;51.020;7.772;2022-12-19T11:45:21;97835.00;;;8.30
19666;BMP180;9980;51.020;7.772;2022-12-19T11:48:23;97836.00;;;8.40
19666;BMP180;9980;51.020;7.772;2022-12-19T11:51:05;97825.00;;;8.40
19666;BMP180;9980;51.020;7.772;2022-12-19T11:54:16;97843.00;;;8.40
19666;BMP180;9980;51.020;7.772;2022-12-19T11:56:44;97833.00;;;8.40
19666;BMP180;9980;51.020;7.772;2022-12-19T11:59:26;97837.00;;;8.40
19666;BMP180;9980;51.020;7.772;2022-12-19T12:02:16;97830.00;;;8.50
19666;BMP180;9980;51.020;7.772;2022-12-19T12:07:35;97854.00;;;8.50
19666;BMP180;9980;51.020;7.772;2022-12-19T12:10:21;97855.00;;;8.50
19666;BMP180;9980;51.020;7.772;2022-12-19T12:13:45;97838.00;;;8.50
19666;BMP180;9980;51.020;7.772;2022-12-19T12:17:05;97833.00;;;8.50
19666;BMP180;9980;51.020;7.772;2022-12-19T12:20:42;97835.00;;;8.50
19666;BMP180;9980;51.020;7.772;2022-12-19T12:23:40;97846.00;;;8.60
19666;BMP180;9980;51.020;7.772;2022-12-19T12:26:38;97844.00;;;8.50
19666;BMP180;9980;51.020;7.772;2022-12-19T12:29:47;97841.00;;;8.50
19666;BMP180;9980;51.020;7.772;2022-12-19T12:36:06;97843.00;;;8.50
19666;BMP180;9980;51.020;7.772;2022-12-19T12:44:39;97818.00;;;8.50
19666;BMP180;9980;51.020;7.772;2022-12-19T12:47:25;97808.00;;;8.50
19666;BMP180;9980;51.020;7.772;2022-12-19T12:50:03;97792.00;;;8.50
19666;BMP180;9980;51.020;7.772;2022-12-19T12:52:37;97798.00;;;8.50
19666;BMP180;9980;51.020;7.772;2022-12-19T12:55:19;97796.00;;;8.50
19666;BMP180;9980;51.020;7.772;2022-12-19T12:57:47;97796.00;;;8.50
19666;BMP180;9980;51.020;7.772;2022-12-19T13:00:29;97789.00;;;8.50
19666;BMP180;9980;51.020;7.772;2022-12-19T13:03:05;97795.00;;;8.50
19666;BMP180;9980;51.020;7.772;2022-12-19T13:05:51;97807.00;;;8.50
19666;BMP180;9980;51.020;7.772;2022-12-19T13:11:11;97797.00;;;8.50
19666;BMP180;9980;51.020;7.772;2022-12-19T13:13:59;97795.00;;;8.50
19666;BMP180;9980;51.020;7.772;2022-12-19T13:19:27;97791.00;;;8.50
19666;BMP180;9980;51.020;7.772;2022-12-19T13:24:54;97795.00;;;8.50
19666;BMP180;9980;51.020;7.772;2022-12-19T13:32:22;97785.00;;;8.60
19666;BMP180;9980;51.020;7.772;2022-12-19T13:34:59;97781.00;;;8.60
19666;BMP180;9980;51.020;7.772;2022-12-19T13:41:01;97770.00;;;8.60
19666;BMP180;9980;51.020;7.772;2022-12-19T13:43:58;97773.00;;;8.60
19666;BMP180;9980;51.020;7.772;2022-12-19T13:46:42;97770.00;;;8.60
19666;BMP180;9980;51.020;7.772;2022-12-19T13:49:24;97766.00;;;8.60
19666;BMP180;9980;51.020;7.772;2022-12-19T13:51:57;97782.00;;;8.60
19666;BMP180;9980;51.020;7.772;2022-12-19T13:54:28;97772.00;;;8.60
19666;BMP180;9980;51.020;7.772;2022-12-19T13:56:58;97759.00;;;8.60
19666;BMP180;9980;51.020;7.772;2022-12-19T13:59:32;97765.00;;;8.60
19666;BMP180;9980;51.020;7.772;2022-12-19T14:02:29;97762.00;;;8.60
19666;BMP180;9980;51.020;7.772;2022-12-19T14:04:56;97755.00;;;8.70
19666;BMP180;9980;51.020;7.772;2022-12-19T14:07:41;97773.00;;;8.70
19666;BMP180;9980;51.020;7.772;2022-12-19T14:10:18;97757.00;;;8.70
19666;BMP180;9980;51.020;7.772;2022-12-19T14:13:12;97769.00;;;8.60
19666;BMP180;9980;51.020;7.772;2022-12-19T14:16:17;97754.00;;;8.70
19666;BMP180;9980;51.020;7.772;2022-12-19T14:18:48;97765.00;;;8.70
19666;BMP180;9980;51.020;7.772;2022-12-19T14:21:24;97756.00;;;8.60
19666;BMP180;9980;51.020;7.772;2022-12-19T14:24:22;97737.00;;;8.60
19666;BMP180;9980;51.020;7.772;2022-12-19T14:26:58;97746.00;;;8.60
19666;BMP180;9980;51.020;7.772;2022-12-19T14:29:51;97748.00;;;8.60
19666;BMP180;9980;51.020;7.772;2022-12-19T14:32:39;97761.00;;;8.60
19666;BMP180;9980;51.020;7.772;2022-12-19T14:35:33;97755.00;;;8.60
19666;BMP180;9980;51.020;7.772;2022-12-19T14:38:27;97760.00;;;8.60
19666;BMP180;9980;51.020;7.772;2022-12-19T14:44:16;97748.00;;;8.60
19666;BMP180;9980;51.020;7.772;2022-12-19T14:47:10;97750.00;;;8.60
19666;BMP180;9980;51.020;7.772;2022-12-19T14:49:57;97729.00;;;8.60
19666;BMP180;9980;51.020;7.772;2022-12-19T14:52:44;97721.00;;;8.60
19666;BMP180;9980;51.020;7.772;2022-12-19T14:55:36;97727.00;;;8.70
19666;BMP180;9980;51.020;7.772;2022-12-19T14:58:31;97714.00;;;8.60
19666;BMP180;9980;51.020;7.772;2022-12-19T15:04:25;97719.00;;;8.70
19666;BMP180;9980;51.020;7.772;2022-12-19T15:07:28;97710.00;;;8.70
19666;BMP180;9980;51.020;7.772;2022-12-19T15:10:02;97713.00;;;8.80
19666;BMP180;9980;51.020;7.772;2022-12-19T15:16:01;97712.00;;;8.80
19666;BMP180;9980;51.020;7.772;2022-12-19T15:21:00;97712.00;;;8.80
19666;BMP180;9980;51.020;7.772;2022-12-19T15:23:27;97713.00;;;8.90
19666;BMP180;9980;51.020;7.772;2022-12-19T15:25:59;97710.00;;;8.90
19666;BMP180;9980;51.020;7.772;2022-12-19T15:28:41;97721.00;;;8.90
19666;BMP180;9980;51.020;7.772;2022-12-19T15:31:32;97714.00;;;8.90
19666;BMP180;9980;51.020;7.772;2022-12-19T15:37:12;97718.00;;;9.00
19666;BMP180;9980;51.020;7.772;2022-12-19T15:39:40;97706.00;;;9.00
19666;BMP180;9980;51.020;7.772;2022-12-19T15:42:19;97701.00;;;9.00
19666;BMP180;9980;51.020;7.772;2022-12-19T15:44:48;97695.00;;;9.00
19666;BMP180;9980;51.020;7.772;2022-12-19T15:49:51;97676.00;;;9.10
19666;BMP180;9980;51.020;7.772;2022-12-19T15:52:20;97679.00;;;9.10
19666;BMP180;9980;51.020;7.772;2022-12-19T15:54:47;97661.00;;;9.10
19666;BMP180;9980;51.020;7.772;2022-12-19T15:57:37;97658.00;;;9.10
19666;BMP180;9980;51.020;7.772;2022-12-19T16:02:45;97656.00;;;9.20
19666;BMP180;9980;51.020;7.772;2022-12-19T16:05:32;97665.00;;;9.20
19666;BMP180;9980;51.020;7.772;2022-12-19T16:07:58;97664.00;;;9.30
19666;BMP180;9980;51.020;7.772;2022-12-19T16:10:25;97663.00;;;9.30
19666;BMP180;9980;51.020;7.772;2022-12-19T16:12:54;97673.00;;;9.30
19666;BMP180;9980;51.020;7.772;2022-12-19T16:15:30;97674.00;;;9.30
19666;BMP180;9980;51.020;7.772;2022-12-19T16:18:00;97675.00;;;9.30
19666;BMP180;9980;51.020;7.772;2022-12-19T16:20:31;97667.00;;;9.40
19666;BMP180;9980;51.020;7.772;2022-12-19T16:22:59;97670.00;;;9.40
19666;BMP180;9980;51.020;7.772;2022-12-19T16:25:35;97674.00;;;9.40
19666;BMP180;9980;51.020;7.772;2022-12-19T16:28:05;97654.00;;;9.50
19666;BMP180;9980;51.020;7.772;2022-12-19T16:30:33;97658.00;;;9.50
19666;BMP180;9980;51.020;7.772;2022-12-19T16:33:00;97662.00;;;9.50
19666;BMP180;9980;51.020;7.772;2022-12-19T16:35:29;97648.00;;;9.50
19666;BMP180;9980;51.020;7.772;2022-12-19T16:38:16;97650.00;;;9.50
19666;BMP180;9980;51.020;7.772;2022-12-19T16:40:43;97675.00;;;9.60
19666;BMP180;9980;51.020;7.772;2022-12-19T16:43:30;97690.00;;;9.60
19666;BMP180;9980;51.020;7.772;2022-12-19T16:45:57;97667.00;;;9.60
19666;BMP180;9980;51.020;7.772;2022-12-19T16:48:28;97684.00;;;9.70
19666;BMP180;9980;51.020;7.772;2022-12-19T16:50:57;97685.00;;;9.70
19666;BMP180;9980;51.020;7.772;2022-12-19T16:53:24;97674.00;;;9.70
19666;BMP180;9980;51.020;7.772;2022-12-19T16:55:50;97687.00;;;9.70
19666;BMP180;9980;51.020;7.772;2022-12-19T16:58:20;97676.00;;;9.70
19666;BMP180;9980;51.020;7.772;2022-12-19T17:00:48;97691.00;;;9.80
19666;BMP180;9980;51.020;7.772;2022-12-19T17:06:20;97663.00;;;9.80
19666;BMP180;9980;51.020;7.772;2022-12-19T17:08:46;97683.00;;;9.80
19666;BMP180;9980;51.020;7.772;2022-12-19T17:11:18;97677.00;;;9.80
19666;BMP180;9980;51.020;7.772;2022-12-19T17:13:48;97678.00;;;9.80